Time;durP1;ratioP1;P1;durP2;ratioP2;P2;SDS_P1;SDS_P2;PMS_P1;PMS_P2;Temp;Humidity;BMP_temperature;BMP_pressure;BME280_temperature;BME280_humidity;BME280_pressure;Samples;Min_cycle;Max_cycle;Signal;HPM_P1;HPM_P2
2023/03/10 00:00:09;;;;;;;2.92;1.67;;;8.20;99.90;;;;;;5014893;28;20068;-64
2023/03/10 00:02:35;;;;;;;3.35;2.35;;;8.30;99.90;;;;;;5007171;28;20076;-64
2023/03/10 00:05:02;;;;;;;3.45;2.60;;;8.10;99.90;;;;;;5016947;28;20128;-63
2023/03/10 00:07:28;;;;;;;3.17;2.22;;;7.90;99.90;;;;;;5000025;28;20635;-63
2023/03/10 00:09:53;;;;;;;2.97;2.10;;;7.80;99.90;;;;;;5013058;28;20069;-63
2023/03/10 00:12:21;;;;;;;3.33;1.92;;;7.70;99.90;;;;;;5010493;28;20090;-63
2023/03/10 00:14:47;;;;;;;7.72;2.20;;;7.60;99.90;;;;;;5015168;28;20044;-63
2023/03/10 00:17:13;;;;;;;4.07;2.80;;;7.60;99.90;;;;;;5002234;28;20041;-63
2023/03/10 00:19:39;;;;;;;1.85;1.63;;;7.70;99.90;;;;;;5014986;28;20410;-63
2023/03/10 00:22:04;;;;;;;2.92;1.58;;;7.90;99.90;;;;;;5015535;28;20476;-63
2023/03/10 00:24:30;;;;;;;4.70;2.13;;;8.10;99.90;;;;;;5005509;28;20037;-63
2023/03/10 00:26:56;;;;;;;6.35;3.38;;;8.40;99.90;;;;;;5010241;28;20384;-64
2023/03/10 00:29:21;;;;;;;6.68;3.30;;;8.60;99.90;;;;;;5014344;28;20154;-62
2023/03/10 00:31:47;;;;;;;4.35;2.47;;;8.70;99.90;;;;;;5016866;28;20038;-62
2023/03/10 00:34:12;;;;;;;2.33;1.38;;;8.90;99.90;;;;;;5017979;28;20043;-63
2023/03/10 00:36:39;;;;;;;3.92;2.20;;;8.90;99.90;;;;;;5011670;28;20379;-63
2023/03/10 00:39:05;;;;;;;4.28;1.35;;;9.00;99.90;;;;;;5009335;28;20095;-62
2023/03/10 00:41:35;;;;;;;2.72;1.60;;;9.20;99.90;;;;;;4999569;28;20338;-62
2023/03/10 00:44:02;;;;;;;1.75;0.80;;;9.20;99.90;;;;;;4999103;28;20428;-63
2023/03/10 00:46:28;;;;;;;6.90;1.08;;;9.10;99.90;;;;;;5019061;28;20106;-62
2023/03/10 00:48:55;;;;;;;3.22;1.50;;;9.10;99.90;;;;;;5019233;28;20033;-62
2023/03/10 00:51:21;;;;;;;2.58;1.05;;;9.10;99.90;;;;;;5010742;28;20033;-62
2023/03/10 00:53:48;;;;;;;2.47;1.25;;;9.10;99.90;;;;;;5007393;28;20037;-63
2023/03/10 00:56:17;;;;;;;1.88;1.10;;;8.80;99.90;;;;;;5010728;28;20041;-63
2023/03/10 00:58:44;;;;;;;1.42;0.88;;;8.50;99.90;;;;;;4994944;28;20037;-62
2023/03/10 01:01:16;;;;;;;2.15;1.08;;;8.30;99.90;;;;;;5015380;28;20022;-63
2023/03/10 01:03:43;;;;;;;1.80;0.60;;;8.10;99.90;;;;;;4998987;28;20570;-63
2023/03/10 01:06:09;;;;;;;1.73;0.70;;;8.10;99.90;;;;;;5017357;28;20047;-63
2023/03/10 01:08:35;;;;;;;1.23;0.63;;;8.00;99.90;;;;;;5014195;28;20579;-63
2023/03/10 01:11:00;;;;;;;1.52;0.68;;;8.00;99.90;;;;;;5014233;28;20045;-62
2023/03/10 01:13:27;;;;;;;2.17;1.08;;;7.90;99.90;;;;;;5010560;28;20103;-63
2023/03/10 01:15:52;;;;;;;2.08;1.00;;;7.90;99.90;;;;;;5007311;28;20067;-63
2023/03/10 01:18:21;;;;;;;2.35;1.25;;;7.90;99.90;;;;;;4999455;28;20780;-63
2023/03/10 01:20:47;;;;;;;2.05;1.10;;;7.80;99.90;;;;;;5016076;28;20544;-63
2023/03/10 01:23:22;;;;;;;3.58;1.70;;;7.70;99.90;;;;;;5015166;28;20045;-63
2023/03/10 01:25:48;;;;;;;4.90;1.80;;;7.80;99.90;;;;;;5011395;28;20045;-63
2023/03/10 01:28:14;;;;;;;3.78;1.75;;;8.10;99.90;;;;;;5014386;28;20561;-63
2023/03/10 01:30:40;;;;;;;4.43;1.70;;;8.30;99.90;;;;;;5008593;28;20441;-64
2023/03/10 01:33:07;;;;;;;2.88;1.63;;;8.40;99.90;;;;;;5010777;28;20062;-64
2023/03/10 01:35:33;;;;;;;3.70;1.83;;;8.50;99.90;;;;;;4995078;28;20038;-64
2023/03/10 01:37:59;;;;;;;4.03;1.73;;;8.80;99.90;;;;;;5015899;28;20107;-63
2023/03/10 01:40:28;;;;;;;3.50;1.70;;;9.00;99.90;;;;;;5012619;28;20042;-64
2023/03/10 01:43:20;;;;;;;2.97;2.10;;;9.20;99.90;;;;;;5009534;28;20052;-65
2023/03/10 01:45:46;;;;;;;3.33;2.30;;;9.20;99.90;;;;;;5000420;28;20558;-65
2023/03/10 01:48:14;;;;;;;4.22;1.92;;;9.20;99.90;;;;;;5008001;28;20041;-65
2023/03/10 01:50:42;;;;;;;3.70;2.50;;;9.10;99.90;;;;;;5017394;28;20054;-65
2023/03/10 01:53:09;;;;;;;3.47;2.35;;;9.10;99.90;;;;;;5013478;28;20128;-65
2023/03/10 01:55:38;;;;;;;6.53;2.40;;;9.10;99.90;;;;;;5013697;28;20037;-65
2023/03/10 01:58:07;;;;;;;6.22;2.40;;;9.20;99.90;;;;;;5011838;28;20041;-65
2023/03/10 02:00:33;;;;;;;6.75;2.22;;;9.20;99.90;;;;;;5008535;28;20044;-64
2023/03/10 02:03:06;;;;;;;3.35;2.17;;;9.20;99.90;;;;;;5013495;28;20034;-65
2023/03/10 02:05:37;;;;;;;4.82;2.17;;;9.10;99.90;;;;;;5008426;28;20156;-65
2023/03/10 02:08:04;;;;;;;4.85;2.28;;;9.00;99.90;;;;;;5006749;28;20494;-64
2023/03/10 02:10:31;;;;;;;3.03;2.13;;;9.00;99.90;;;;;;5009535;28;20045;-64
2023/03/10 02:12:56;;;;;;;5.28;2.08;;;8.90;99.90;;;;;;5005383;28;20067;-64
2023/03/10 02:15:22;;;;;;;3.67;2.40;;;8.90;99.90;;;;;;5004863;28;20536;-65
2023/03/10 02:17:51;;;;;;;3.70;2.40;;;8.90;99.90;;;;;;5007798;28;20069;-64
2023/03/10 02:20:52;;;;;;;4.13;2.35;;;9.00;99.90;;;;;;5009251;28;20034;-65
2023/03/10 02:23:36;;;;;;;5.57;3.42;;;9.10;99.90;;;;;;4996969;28;20996;-64
2023/03/10 02:26:18;;;;;;;5.82;3.20;;;9.10;99.90;;;;;;5005752;28;20038;-64
2023/03/10 02:28:45;;;;;;;5.10;3.05;;;9.20;99.90;;;;;;5002239;28;20042;-64
2023/03/10 02:31:12;;;;;;;4.57;2.40;;;9.10;99.90;;;;;;5005211;28;20132;-64
2023/03/10 02:33:38;;;;;;;4.45;2.58;;;9.10;99.90;;;;;;5012486;28;20095;-65
2023/03/10 02:36:16;;;;;;;5.75;3.00;;;9.10;99.90;;;;;;5016157;28;20046;-64
2023/03/10 02:38:41;;;;;;;3.15;2.38;;;9.10;99.90;;;;;;5010816;28;20048;-64
2023/03/10 02:41:18;;;;;;;4.55;2.67;;;9.10;99.90;;;;;;5013425;28;20109;-64
2023/03/10 02:43:44;;;;;;;3.15;2.15;;;9.10;99.90;;;;;;5012480;28;20042;-64
2023/03/10 02:46:09;;;;;;;3.28;2.03;;;8.90;99.90;;;;;;5016648;28;20448;-64
2023/03/10 02:48:37;;;;;;;3.47;2.47;;;8.70;99.90;;;;;;5001007;28;20041;-64
2023/03/10 02:51:08;;;;;;;2.97;2.20;;;8.40;99.90;;;;;;4998354;28;20045;-64
2023/03/10 02:53:34;;;;;;;3.67;2.58;;;8.20;99.90;;;;;;5011779;28;20116;-64
2023/03/10 02:55:59;;;;;;;6.03;1.88;;;8.10;99.90;;;;;;5011048;28;20037;-64
2023/03/10 02:58:28;;;;;;;5.45;2.00;;;8.00;99.90;;;;;;5010832;28;20417;-64
2023/03/10 03:00:54;;;;;;;4.47;2.58;;;8.10;99.90;;;;;;4978460;28;20083;-64
2023/03/10 03:03:20;;;;;;;4.63;2.25;;;8.20;99.90;;;;;;5017708;28;20106;-65
2023/03/10 03:05:46;;;;;;;3.63;2.33;;;8.20;99.90;;;;;;5008973;28;20037;-64
2023/03/10 03:08:12;;;;;;;4.60;2.50;;;8.30;99.90;;;;;;5007537;28;20041;-64
2023/03/10 03:10:38;;;;;;;3.03;2.13;;;8.30;99.90;;;;;;5017997;28;20041;-64
2023/03/10 03:13:05;;;;;;;8.25;5.07;;;8.30;99.90;;;;;;5001699;28;20069;-64
2023/03/10 03:15:31;;;;;;;16.85;11.23;;;8.20;99.90;;;;;;5016737;28;20986;-65
2023/03/10 03:18:00;;;;;;;32.08;21.70;;;8.10;99.90;;;;;;5013055;28;20116;-64
2023/03/10 03:20:27;;;;;;;21.20;16.20;;;7.90;99.90;;;;;;5017655;28;20505;-64
2023/03/10 03:22:53;;;;;;;14.93;11.38;;;7.60;99.90;;;;;;5014880;28;20136;-64
2023/03/10 03:25:20;;;;;;;6.43;4.07;;;7.30;99.90;;;;;;5011718;28;20104;-65
2023/03/10 03:27:47;;;;;;;5.63;3.28;;;7.00;99.90;;;;;;5018048;28;20037;-64
2023/03/10 03:30:16;;;;;;;7.88;5.45;;;6.90;99.90;;;;;;5018827;28;20111;-64
2023/03/10 03:32:42;;;;;;;4.28;2.70;;;6.80;99.90;;;;;;5019709;28;20061;-65
2023/03/10 03:35:22;;;;;;;4.38;2.55;;;6.70;99.90;;;;;;5014326;28;20048;-64
2023/03/10 03:37:48;;;;;;;3.97;1.92;;;6.70;99.90;;;;;;5016569;28;20183;-64
2023/03/10 03:40:14;;;;;;;3.05;1.80;;;6.70;99.90;;;;;;5016172;28;20038;-64
2023/03/10 03:42:41;;;;;;;2.80;2.17;;;6.70;99.90;;;;;;5010366;28;20021;-64
2023/03/10 03:45:07;;;;;;;3.10;2.28;;;6.60;99.90;;;;;;5017632;28;20073;-64
2023/03/10 03:47:34;;;;;;;4.07;2.30;;;6.50;99.90;;;;;;5007432;28;20698;-64
2023/03/10 03:50:00;;;;;;;3.30;2.83;;;6.50;99.90;;;;;;5007037;28;20045;-64
2023/03/10 03:52:26;;;;;;;2.40;1.73;;;6.50;99.90;;;;;;5008333;28;20071;-64
2023/03/10 03:54:52;;;;;;;5.57;2.50;;;6.40;99.90;;;;;;5014488;28;20033;-64
2023/03/10 03:57:18;;;;;;;4.32;2.25;;;6.20;99.90;;;;;;5003544;28;20098;-64
2023/03/10 03:59:43;;;;;;;3.90;2.22;;;6.10;99.90;;;;;;5008752;28;20366;-64
2023/03/10 04:02:09;;;;;;;3.50;2.25;;;6.10;99.90;;;;;;5001788;28;20512;-64
2023/03/10 04:04:35;;;;;;;5.07;2.35;;;6.10;99.90;;;;;;5010233;28;20446;-64
2023/03/10 04:07:01;;;;;;;5.05;3.08;;;6.00;99.90;;;;;;5004398;28;20046;-64
2023/03/10 04:09:28;;;;;;;6.18;4.00;;;5.90;99.90;;;;;;5008926;28;21491;-64
2023/03/10 04:11:54;;;;;;;7.10;4.78;;;5.80;99.90;;;;;;5005320;28;20049;-64
2023/03/10 04:14:20;;;;;;;6.35;5.03;;;5.80;99.90;;;;;;5010440;28;20053;-64
2023/03/10 04:16:45;;;;;;;2.95;2.05;;;5.90;99.90;;;;;;5005046;28;20470;-65
2023/03/10 04:19:12;;;;;;;5.05;2.90;;;5.90;99.90;;;;;;5013007;28;20125;-64
2023/03/10 04:21:38;;;;;;;3.88;1.98;;;5.80;99.90;;;;;;5001531;28;20111;-64
2023/03/10 04:24:04;;;;;;;2.47;2.25;;;5.80;99.90;;;;;;5014203;28;20049;-64
2023/03/10 04:26:30;;;;;;;2.88;2.13;;;5.80;99.90;;;;;;5013213;28;20520;-64
2023/03/10 04:28:57;;;;;;;3.42;2.42;;;5.70;99.90;;;;;;5012775;28;20049;-64
2023/03/10 04:31:23;;;;;;;4.35;3.28;;;5.70;99.90;;;;;;5012967;28;20058;-64
2023/03/10 04:33:48;;;;;;;6.78;3.83;;;5.70;99.90;;;;;;5016403;28;20038;-64
2023/03/10 04:36:15;;;;;;;5.90;3.63;;;5.70;99.90;;;;;;5013021;28;20037;-64
2023/03/10 04:38:40;;;;;;;7.03;3.78;;;5.70;99.90;;;;;;5017853;28;20033;-64
2023/03/10 04:41:08;;;;;;;5.60;3.53;;;5.80;99.90;;;;;;5016874;28;20620;-64
2023/03/10 04:43:34;;;;;;;6.97;3.42;;;5.90;99.90;;;;;;5020814;28;20104;-64
2023/03/10 04:46:00;;;;;;;9.27;4.63;;;6.00;99.90;;;;;;5012367;28;20041;-64
2023/03/10 04:48:26;;;;;;;6.57;4.55;;;6.00;99.90;;;;;;5011166;28;20040;-64
2023/03/10 04:51:01;;;;;;;4.97;3.70;;;6.10;99.90;;;;;;5015041;28;20048;-64
2023/03/10 04:53:28;;;;;;;4.50;2.75;;;6.20;99.90;;;;;;4993969;28;20493;-64
2023/03/10 04:55:54;;;;;;;4.93;2.65;;;6.30;99.90;;;;;;5016110;28;20048;-64
2023/03/10 04:58:21;;;;;;;5.10;2.95;;;6.50;99.90;;;;;;5015915;28;20438;-64
2023/03/10 05:00:47;;;;;;;5.25;3.55;;;6.60;99.90;;;;;;5015421;28;20506;-64
2023/03/10 05:03:12;;;;;;;12.57;8.18;;;6.70;99.90;;;;;;5009315;28;20122;-64
2023/03/10 05:05:38;;;;;;;7.03;4.57;;;6.60;99.90;;;;;;5009040;28;20496;-64
2023/03/10 05:08:04;;;;;;;5.60;3.33;;;6.60;99.90;;;;;;5018266;28;20044;-64
2023/03/10 05:10:30;;;;;;;8.27;5.47;;;6.50;99.90;;;;;;5017729;28;20049;-64
2023/03/10 05:12:56;;;;;;;4.55;3.35;;;6.50;99.90;;;;;;5012763;28;20033;-64
2023/03/10 05:15:22;;;;;;;22.13;14.63;;;6.50;99.90;;;;;;5015084;28;20746;-64
2023/03/10 05:17:47;;;;;;;43.15;27.65;;;6.60;99.90;;;;;;5012667;28;20544;-64
2023/03/10 05:20:14;;;;;;;42.40;27.40;;;6.60;99.90;;;;;;5013287;28;20037;-64
2023/03/10 05:22:41;;;;;;;41.65;25.60;;;6.60;99.90;;;;;;5019060;28;20041;-64
2023/03/10 05:25:08;;;;;;;9.07;5.47;;;6.50;99.90;;;;;;5017571;28;20052;-64
2023/03/10 05:27:35;;;;;;;3.50;2.70;;;6.40;99.90;;;;;;5011771;28;20321;-64
2023/03/10 05:30:02;;;;;;;3.00;2.20;;;6.10;99.90;;;;;;4996089;28;20984;-64
2023/03/10 05:32:27;;;;;;;2.92;1.73;;;5.90;99.90;;;;;;5008668;28;20560;-64
2023/03/10 05:34:53;;;;;;;3.10;2.28;;;5.80;99.90;;;;;;5014920;28;20967;-64
2023/03/10 05:37:19;;;;;;;4.90;3.10;;;5.70;99.90;;;;;;5012065;28;20157;-64
2023/03/10 05:39:45;;;;;;;5.95;3.78;;;5.80;99.90;;;;;;5008107;28;20497;-64
2023/03/10 05:42:11;;;;;;;6.30;4.93;;;5.90;99.90;;;;;;5011652;28;20044;-64
2023/03/10 05:44:38;;;;;;;9.48;5.88;;;6.00;99.90;;;;;;5016148;28;20037;-64
2023/03/10 05:47:04;;;;;;;10.23;5.47;;;6.10;99.90;;;;;;5016287;28;20532;-64
2023/03/10 05:49:30;;;;;;;9.13;6.65;;;6.20;99.90;;;;;;5014499;28;20037;-65
2023/03/10 05:51:56;;;;;;;8.15;5.72;;;6.40;99.90;;;;;;5005246;28;20045;-64
2023/03/10 05:54:23;;;;;;;10.82;6.70;;;6.40;99.90;;;;;;4996751;28;20048;-64
2023/03/10 05:56:49;;;;;;;11.18;7.38;;;6.50;99.90;;;;;;4999791;28;20387;-64
2023/03/10 05:59:14;;;;;;;15.18;8.90;;;6.50;99.90;;;;;;5007361;28;20113;-64
2023/03/10 06:01:40;;;;;;;12.57;10.20;;;6.60;99.90;;;;;;4993311;28;20053;-64
2023/03/10 06:04:06;;;;;;;15.90;9.73;;;6.90;99.90;;;;;;5010803;28;20519;-64
2023/03/10 06:06:32;;;;;;;13.95;7.88;;;7.10;99.90;;;;;;5009826;28;20037;-64
2023/03/10 06:08:58;;;;;;;10.70;6.28;;;7.30;99.90;;;;;;5003094;28;20064;-65
2023/03/10 06:11:24;;;;;;;12.00;7.38;;;7.50;99.90;;;;;;5003100;28;20050;-65
2023/03/10 06:13:50;;;;;;;10.75;8.65;;;7.70;99.90;;;;;;5011263;28;20406;-64
2023/03/10 06:16:16;;;;;;;11.68;9.48;;;7.90;99.90;;;;;;5003813;28;20045;-65
2023/03/10 06:18:41;;;;;;;10.43;7.53;;;8.10;99.90;;;;;;4995101;28;20040;-64
2023/03/10 06:21:11;;;;;;;8.88;5.20;;;8.40;99.90;;;;;;5006494;28;20406;-64
2023/03/10 06:23:37;;;;;;;16.65;9.82;;;8.60;99.90;;;;;;4990311;28;20479;-64
2023/03/10 06:26:11;;;;;;;18.65;10.10;;;8.90;99.90;;;;;;5009896;28;20041;-64
2023/03/10 06:28:39;;;;;;;18.55;10.13;;;9.10;99.90;;;;;;5001252;28;20037;-64
2023/03/10 06:31:08;;;;;;;15.75;8.50;;;9.20;99.90;;;;;;5006522;28;20143;-64
2023/03/10 06:33:34;;;;;;;10.40;6.88;;;9.40;99.90;;;;;;5005825;28;20120;-64
2023/03/10 06:36:00;;;;;;;9.93;7.18;;;9.50;99.90;;;;;;5013349;28;20098;-64
2023/03/10 06:38:27;;;;;;;11.93;6.45;;;9.60;99.90;;;;;;5015367;28;20073;-63
2023/03/10 06:40:53;;;;;;;15.38;7.47;;;9.70;99.90;;;;;;4998213;28;20041;-65
2023/03/10 06:43:18;;;;;;;19.42;9.05;;;9.90;99.90;;;;;;5016079;28;20079;-64
2023/03/10 06:45:45;;;;;;;13.15;7.43;;;9.90;99.90;;;;;;5018774;28;20486;-64
2023/03/10 06:48:12;;;;;;;7.03;4.38;;;10.00;99.90;;;;;;5012917;28;20037;-64
2023/03/10 06:50:48;;;;;;;9.40;5.75;;;10.10;99.90;;;;;;5005418;28;20056;-64
2023/03/10 06:53:16;;;;;;;9.13;4.40;;;10.20;99.90;;;;;;5019240;28;20524;-64
2023/03/10 06:55:41;;;;;;;8.13;4.63;;;10.30;99.90;;;;;;5017735;28;20033;-64
2023/03/10 06:58:07;;;;;;;10.38;6.15;;;10.30;99.90;;;;;;5018231;28;20029;-64
2023/03/10 07:00:33;;;;;;;35.85;15.43;;;10.40;99.90;;;;;;5011317;28;20881;-64
2023/03/10 07:02:59;;;;;;;27.13;19.45;;;10.50;99.90;;;;;;5005969;28;20496;-65
2023/03/10 07:05:26;;;;;;;14.60;9.43;;;10.50;99.90;;;;;;5009613;28;20050;-64
2023/03/10 07:07:53;;;;;;;10.23;7.05;;;10.50;99.90;;;;;;5003438;28;20486;-64
2023/03/10 07:10:19;;;;;;;12.23;6.53;;;10.60;99.90;;;;;;5014845;28;20076;-64
2023/03/10 07:12:47;;;;;;;8.82;5.00;;;10.70;99.90;;;;;;5011709;28;20025;-64
2023/03/10 07:15:13;;;;;;;6.70;5.00;;;10.70;99.90;;;;;;5011028;28;20489;-65
2023/03/10 07:17:39;;;;;;;12.38;6.30;;;10.80;99.90;;;;;;5015932;28;20119;-64
2023/03/10 07:20:05;;;;;;;6.88;5.03;;;11.00;99.90;;;;;;5010915;28;20037;-64
2023/03/10 07:22:31;;;;;;;10.90;7.25;;;11.00;99.90;;;;;;5012948;28;20041;-65
2023/03/10 07:24:56;;;;;;;11.55;8.35;;;11.20;99.90;;;;;;5010125;28;20040;-65
2023/03/10 07:27:22;;;;;;;6.95;5.18;;;11.30;99.90;;;;;;4997962;28;20796;-64
2023/03/10 07:29:48;;;;;;;5.10;4.05;;;11.40;99.90;;;;;;5009621;28;20120;-65
2023/03/10 07:32:15;;;;;;;7.90;4.47;;;11.40;99.90;;;;;;5011793;28;20622;-64
2023/03/10 07:34:41;;;;;;;5.45;4.03;;;11.40;99.90;;;;;;5012467;28;20030;-64
2023/03/10 07:37:08;;;;;;;5.93;4.03;;;11.30;99.90;;;;;;4991345;28;20029;-64
2023/03/10 07:39:34;;;;;;;7.50;4.38;;;11.30;99.90;;;;;;5013836;28;20033;-64
2023/03/10 07:41:59;;;;;;;7.97;4.30;;;11.40;99.90;;;;;;5013571;28;20040;-64
2023/03/10 07:44:25;;;;;;;5.18;4.20;;;11.60;99.90;;;;;;5018720;28;20038;-64
2023/03/10 07:46:50;;;;;;;6.97;4.05;;;11.70;99.90;;;;;;5016421;28;20044;-65
2023/03/10 07:49:16;;;;;;;5.20;4.32;;;11.70;99.90;;;;;;5014490;28;20243;-64
2023/03/10 07:51:42;;;;;;;4.80;4.30;;;11.80;99.90;;;;;;5021917;28;20076;-64
2023/03/10 07:54:10;;;;;;;4.40;3.45;;;11.80;99.90;;;;;;5014833;28;20171;-64
2023/03/10 07:56:36;;;;;;;6.72;3.85;;;11.90;99.90;;;;;;5015885;28;20041;-64
2023/03/10 07:59:01;;;;;;;5.18;4.13;;;12.00;99.90;;;;;;5014998;28;20111;-64
2023/03/10 08:01:27;;;;;;;4.32;3.78;;;12.10;99.90;;;;;;5005968;28;20099;-65
2023/03/10 08:03:53;;;;;;;6.57;4.05;;;12.20;99.90;;;;;;5014083;28;20043;-64
2023/03/10 08:06:21;;;;;;;6.90;4.40;;;12.20;99.90;;;;;;5013412;28;20760;-65
2023/03/10 08:08:47;;;;;;;4.65;4.10;;;12.20;99.90;;;;;;5016742;28;20303;-64
2023/03/10 08:11:13;;;;;;;5.68;3.72;;;12.20;99.90;;;;;;5008326;28;20144;-64
2023/03/10 08:13:39;;;;;;;5.40;4.40;;;12.40;99.90;;;;;;5008372;28;20914;-64
2023/03/10 08:16:05;;;;;;;4.05;3.65;;;12.60;99.90;;;;;;5016205;28;20052;-64
2023/03/10 08:18:32;;;;;;;7.07;4.85;;;12.60;99.90;;;;;;5020685;28;20321;-64
2023/03/10 08:20:58;;;;;;;4.40;3.92;;;12.70;99.90;;;;;;5017681;28;20036;-65
2023/03/10 08:23:24;;;;;;;6.05;4.20;;;12.80;99.90;;;;;;5016569;28;20072;-64
2023/03/10 08:25:50;;;;;;;6.65;4.35;;;12.90;99.90;;;;;;5021002;28;20049;-64
2023/03/10 08:28:16;;;;;;;7.35;4.70;;;13.10;99.90;;;;;;5015621;28;20033;-64
2023/03/10 08:30:42;;;;;;;5.38;3.85;;;13.10;99.90;;;;;;5015966;28;20049;-64
2023/03/10 08:33:08;;;;;;;7.13;4.55;;;13.30;99.90;;;;;;5010463;28;20052;-64
2023/03/10 08:35:36;;;;;;;7.18;4.70;;;13.30;99.90;;;;;;5018947;28;20169;-64
2023/03/10 08:38:03;;;;;;;5.53;4.35;;;13.50;99.90;;;;;;5023545;28;20124;-64
2023/03/10 08:40:30;;;;;;;9.88;4.13;;;13.50;99.90;;;;;;5013927;28;20043;-64
2023/03/10 08:42:55;;;;;;;7.15;4.50;;;13.50;99.90;;;;;;5014799;28;20091;-64
2023/03/10 08:45:21;;;;;;;7.38;4.00;;;13.60;99.90;;;;;;5007830;28;20406;-64
2023/03/10 08:47:47;;;;;;;5.07;3.83;;;13.60;99.90;;;;;;5010673;28;20530;-64
2023/03/10 08:50:13;;;;;;;7.63;3.75;;;13.60;99.90;;;;;;5015790;28;20045;-64
2023/03/10 08:52:40;;;;;;;5.32;3.92;;;13.60;99.90;;;;;;5014669;28;20131;-64
2023/03/10 08:55:06;;;;;;;6.78;4.45;;;13.70;99.90;;;;;;5007235;28;20056;-64
2023/03/10 08:57:32;;;;;;;8.30;5.18;;;13.70;99.90;;;;;;5014351;28;20116;-64
2023/03/10 08:59:58;;;;;;;7.50;4.50;;;13.70;99.90;;;;;;5018117;28;20532;-64
2023/03/10 09:02:25;;;;;;;9.02;5.32;;;13.60;99.90;;;;;;5004828;28;20053;-64
2023/03/10 09:04:51;;;;;;;5.70;5.07;;;13.70;99.90;;;;;;5009694;28;20179;-64
2023/03/10 09:07:17;;;;;;;8.52;5.50;;;13.80;99.90;;;;;;5019945;28;20022;-64
2023/03/10 09:09:43;;;;;;;8.07;4.97;;;13.70;99.90;;;;;;5013718;28;20088;-64
2023/03/10 09:12:09;;;;;;;9.35;5.53;;;13.80;99.90;;;;;;5019314;28;20457;-64
2023/03/10 09:14:36;;;;;;;8.07;5.45;;;14.00;99.90;;;;;;5011756;28;20034;-64
2023/03/10 09:17:02;;;;;;;6.22;4.80;;;13.80;99.90;;;;;;5011577;28;20124;-64
2023/03/10 09:19:28;;;;;;;8.25;5.35;;;13.70;99.90;;;;;;5013355;28;20041;-64
2023/03/10 09:21:56;;;;;;;7.10;5.45;;;13.60;99.90;;;;;;5005650;28;20069;-63
2023/03/10 09:24:23;;;;;;;8.57;5.25;;;13.70;99.90;;;;;;5013836;28;20478;-64
2023/03/10 09:26:49;;;;;;;8.43;5.25;;;13.80;99.90;;;;;;4998598;28;20502;-64
2023/03/10 09:29:15;;;;;;;9.45;5.35;;;14.00;99.90;;;;;;4984445;28;20065;-64
2023/03/10 09:31:42;;;;;;;7.85;4.68;;;14.10;99.90;;;;;;4998614;28;20042;-64
2023/03/10 09:34:10;;;;;;;8.10;4.50;;;14.30;99.90;;;;;;4992929;28;20048;-64
2023/03/10 09:36:37;;;;;;;8.00;4.78;;;14.60;99.90;;;;;;4988859;28;20045;-64
2023/03/10 09:39:04;;;;;;;5.28;4.03;;;14.80;99.90;;;;;;4993469;28;20105;-64
2023/03/10 09:41:29;;;;;;;7.00;4.72;;;15.00;99.90;;;;;;4997778;28;20034;-64
2023/03/10 09:44:25;;;;;;;7.38;4.20;;;15.20;99.90;;;;;;4996488;28;20406;-64
2023/03/10 09:47:14;;;;;;;5.22;3.17;;;15.40;99.90;;;;;;4992683;28;20029;-64
2023/03/10 09:50:06;;;;;;;6.88;4.22;;;15.40;99.90;;;;;;4992112;28;20406;-64
2023/03/10 09:52:40;;;;;;;8.60;3.60;;;15.40;99.90;;;;;;4988473;28;20038;-64
2023/03/10 09:55:21;;;;;;;8.82;4.35;;;15.50;99.90;;;;;;4975118;28;20242;-64
2023/03/10 09:57:53;;;;;;;7.25;4.35;;;15.50;99.90;;;;;;4992539;28;20190;-64
2023/03/10 10:00:34;;;;;;;5.00;3.92;;;15.60;99.90;;;;;;4985273;28;20033;-64
2023/03/10 10:03:12;;;;;;;7.75;3.50;;;15.60;99.90;;;;;;4988413;28;20057;-64
2023/03/10 10:05:41;;;;;;;6.07;3.63;;;15.70;99.90;;;;;;4994316;28;20038;-64
2023/03/10 10:08:38;;;;;;;5.10;3.30;;;15.80;99.90;;;;;;4982186;28;20038;-65
2023/03/10 10:11:08;;;;;;;5.82;3.50;;;16.00;99.90;;;;;;4983193;28;20053;-64
2023/03/10 10:13:35;;;;;;;5.45;3.42;;;16.10;99.90;;;;;;4986770;28;20090;-64
2023/03/10 10:16:24;;;;;;;7.55;3.92;;;16.00;99.90;;;;;;4995877;28;20081;-64
2023/03/10 10:19:23;;;;;;;4.88;3.15;;;15.90;99.90;;;;;;4984134;28;20380;-64
2023/03/10 10:22:17;;;;;;;12.10;3.42;;;15.80;99.90;;;;;;4986564;28;20574;-64
2023/03/10 10:25:09;;;;;;;6.20;3.42;;;15.70;99.90;;;;;;4990673;28;20050;-64
2023/03/10 10:27:36;;;;;;;7.32;3.50;;;15.80;99.90;;;;;;4978016;28;20107;-64
2023/03/10 10:30:25;;;;;;;6.82;3.38;;;15.80;99.90;;;;;;5012335;28;20053;-64
2023/03/10 10:33:05;;;;;;;8.05;3.53;;;15.90;99.90;;;;;;4999876;28;20086;-64
2023/03/10 10:35:34;;;;;;;8.68;3.15;;;15.80;99.90;;;;;;5009633;28;20033;-65
2023/03/10 10:38:09;;;;;;;5.90;3.20;;;15.80;99.90;;;;;;5001545;28;20038;-64
2023/03/10 10:40:46;;;;;;;12.40;4.95;;;15.80;99.90;;;;;;5006685;28;20053;-64
2023/03/10 10:43:19;;;;;;;6.50;4.47;;;15.80;99.90;;;;;;5009540;28;20025;-65
2023/03/10 10:45:53;;;;;;;8.38;4.03;;;15.90;99.90;;;;;;5000460;28;20179;-64
2023/03/10 10:48:28;;;;;;;6.85;4.15;;;15.90;99.90;;;;;;5004274;28;20403;-64
2023/03/10 10:50:54;;;;;;;8.73;3.85;;;15.80;99.90;;;;;;4999111;28;20045;-64
2023/03/10 10:53:23;;;;;;;8.38;4.35;;;15.70;99.90;;;;;;4998987;28;20050;-63
2023/03/10 10:55:59;;;;;;;8.10;4.30;;;15.70;99.90;;;;;;5002725;28;20065;-64
2023/03/10 10:59:05;;;;;;;7.90;4.05;;;15.70;99.90;;;;;;4989783;28;20119;-64
2023/03/10 11:01:52;;;;;;;8.77;3.28;;;15.60;99.90;;;;;;5013338;28;20197;-64
2023/03/10 11:04:18;;;;;;;6.65;3.03;;;15.50;99.90;;;;;;5009514;28;20080;-64
2023/03/10 11:06:45;;;;;;;5.03;2.40;;;15.40;99.90;;;;;;4991524;28;22941;-64
2023/03/10 11:09:17;;;;;;;5.53;2.58;;;15.40;99.90;;;;;;5007643;28;20044;-64
2023/03/10 11:12:20;;;;;;;5.63;2.53;;;15.40;99.90;;;;;;5007552;28;20128;-64
2023/03/10 11:15:17;;;;;;;9.18;2.95;;;15.30;99.90;;;;;;5016575;28;20034;-64
2023/03/10 11:17:59;;;;;;;5.55;2.90;;;15.30;99.90;;;;;;4997962;28;20042;-64
2023/03/10 11:20:25;;;;;;;10.68;5.03;;;15.40;99.90;;;;;;5007116;28;20054;-64
2023/03/10 11:22:59;;;;;;;7.53;2.97;;;15.50;99.90;;;;;;5006461;28;20965;-64
2023/03/10 11:25:46;;;;;;;6.60;3.10;;;15.60;99.90;;;;;;5017410;28;20052;-65
2023/03/10 11:28:26;;;;;;;8.02;2.90;;;15.50;99.90;;;;;;5001728;28;20128;-65
2023/03/10 11:31:31;;;;;;;5.78;3.08;;;15.50;99.90;;;;;;5010492;28;20986;-75
2023/03/10 11:34:11;;;;;;;6.00;2.90;;;15.70;99.90;;;;;;5006601;28;20035;-64
2023/03/10 11:37:03;;;;;;;8.18;3.00;;;15.90;99.90;;;;;;5006944;28;20049;-65
2023/03/10 11:39:31;;;;;;;4.40;2.65;;;16.10;99.90;;;;;;4978710;28;20029;-65
2023/03/10 11:42:23;;;;;;;9.00;4.45;;;16.30;99.90;;;;;;5011965;28;20029;-65
2023/03/10 11:45:09;;;;;;;5.57;3.60;;;16.50;99.90;;;;;;5016681;28;20108;-65
2023/03/10 11:47:47;;;;;;;3.65;2.60;;;16.70;99.90;;;;;;5009121;28;20787;-63
2023/03/10 11:50:40;;;;;;;6.05;3.90;;;16.70;99.90;;;;;;5010363;28;20060;-64
2023/03/10 11:53:30;;;;;;;6.05;2.90;;;16.80;99.90;;;;;;5009246;28;20171;-64
2023/03/10 11:56:00;;;;;;;5.43;3.10;;;16.90;99.90;;;;;;5001657;28;20061;-64
2023/03/10 11:58:38;;;;;;;5.95;2.85;;;17.00;99.90;;;;;;5006110;28;20045;-64
2023/03/10 12:01:06;;;;;;;5.20;2.65;;;17.00;99.90;;;;;;5007147;28;20048;-63
2023/03/10 12:04:04;;;;;;;4.75;2.88;;;17.10;99.90;;;;;;5017858;28;20037;-64
2023/03/10 12:07:00;;;;;;;5.65;2.40;;;17.10;99.90;;;;;;5013801;28;20382;-63
2023/03/10 12:09:31;;;;;;;5.03;2.45;;;17.00;99.90;;;;;;5018789;28;20114;-64
2023/03/10 12:11:58;;;;;;;4.65;3.55;;;17.00;99.90;;;;;;5018709;28;20033;-63
2023/03/10 12:14:24;;;;;;;6.70;2.17;;;17.00;99.90;;;;;;5013455;28;20529;-64
2023/03/10 12:16:52;;;;;;;4.63;2.28;;;16.90;99.90;;;;;;5009008;28;20152;-64
2023/03/10 12:19:17;;;;;;;4.45;2.72;;;16.80;99.90;;;;;;5018090;28;20312;-64
2023/03/10 12:21:45;;;;;;;7.82;2.42;;;16.60;99.90;;;;;;5010124;28;20053;-64
2023/03/10 12:24:45;;;;;;;6.82;2.90;;;16.50;99.90;;;;;;5020626;28;20128;-64
2023/03/10 12:27:11;;;;;;;5.63;2.78;;;16.50;99.90;;;;;;5017909;28;20128;-63
2023/03/10 12:29:39;;;;;;;4.32;2.38;;;16.50;99.90;;;;;;5014609;28;20063;-64
2023/03/10 12:32:42;;;;;;;4.80;2.53;;;16.60;99.90;;;;;;5011742;28;20044;-64
2023/03/10 12:35:20;;;;;;;8.13;2.50;;;16.60;99.90;;;;;;5013225;28;20112;-64
2023/03/10 12:37:46;;;;;;;4.97;2.75;;;16.80;99.90;;;;;;5011637;28;20127;-63
2023/03/10 12:40:50;;;;;;;8.25;3.13;;;16.90;99.90;;;;;;5010022;28;20129;-63
2023/03/10 12:43:43;;;;;;;11.50;9.02;;;17.00;99.90;;;;;;5013137;28;20756;-64
2023/03/10 12:46:14;;;;;;;5.07;2.90;;;17.10;99.90;;;;;;4985987;28;20038;-64
2023/03/10 12:48:47;;;;;;;7.25;3.95;;;17.20;99.90;;;;;;4997701;28;20247;-63
2023/03/10 12:51:18;;;;;;;8.30;6.65;;;17.30;99.90;;;;;;5005613;28;20049;-64
2023/03/10 12:54:05;;;;;;;11.35;10.25;;;17.30;99.90;;;;;;5002928;28;20319;-64
2023/03/10 12:57:06;;;;;;;4.65;3.00;;;17.40;99.90;;;;;;5011694;28;20513;-63
2023/03/10 12:59:51;;;;;;;5.32;2.97;;;17.40;99.90;;;;;;5013291;28;20092;-65
2023/03/10 13:02:36;;;;;;;7.38;3.45;;;17.50;99.90;;;;;;4997412;28;21908;-65
2023/03/10 13:05:07;;;;;;;4.60;3.05;;;17.50;99.90;;;;;;4988733;28;21800;-63